createdAt,value
2022-09-17T00:01:04.212Z,66.20
2022-09-17T00:03:31.851Z,66.51
2022-09-17T00:06:06.076Z,66.84
2022-09-17T00:08:34.004Z,66.64
2022-09-17T00:11:08.478Z,66.59
2022-09-17T00:13:35.019Z,66.83
2022-09-17T00:16:01.858Z,66.92
2022-09-17T00:18:28.397Z,66.74
2022-09-17T00:20:54.860Z,67.03
2022-09-17T00:23:21.540Z,66.86
2022-09-17T00:25:47.988Z,67.08
2022-09-17T00:28:14.823Z,67.38
2022-09-17T00:30:43.729Z,67.02
2022-09-17T00:33:13.232Z,67.45
2022-09-17T00:35:40.057Z,67.49
2022-09-17T00:38:06.671Z,67.24
2022-09-17T00:40:33.317Z,67.12
2022-09-17T00:43:00.163Z,67.30
2022-09-17T00:45:27.770Z,67.39
2022-09-17T00:47:58.745Z,67.60
2022-09-17T00:50:41.140Z,67.49
2022-09-17T00:53:17.170Z,67.77
2022-09-17T00:55:48.716Z,68.09
2022-09-17T00:58:18.742Z,68.03
2022-09-17T01:00:47.231Z,68.31
2022-09-17T01:03:14.309Z,67.98
2022-09-17T01:06:04.891Z,68.19
2022-09-17T01:08:38.962Z,68.05
2022-09-17T01:11:31.730Z,68.38
2022-09-17T01:14:22.089Z,68.38
2022-09-17T01:16:55.505Z,68.50
2022-09-17T01:19:49.983Z,68.62
2022-09-17T01:22:25.530Z,68.52
2022-09-17T01:25:07.213Z,68.40
2022-09-17T01:28:02.062Z,68.40
2022-09-17T01:30:59.469Z,68.39
2022-09-17T01:33:41.329Z,68.51
2022-09-17T01:36:29.638Z,68.43
2022-09-17T01:39:12.441Z,68.49
2022-09-17T01:41:50.964Z,68.33
2022-09-17T01:44:26.350Z,68.14
2022-09-17T01:46:58.055Z,68.38
2022-09-17T01:49:25.869Z,68.28
2022-09-17T01:51:54.698Z,68.78
2022-09-17T01:54:28.511Z,68.59
2022-09-17T01:57:02.063Z,68.23
2022-09-17T01:59:37.766Z,68.14
2022-09-17T02:02:13.329Z,68.66
2022-09-17T02:04:58.522Z,68.66
2022-09-17T02:07:25.991Z,68.78
2022-09-17T02:10:02.352Z,68.93
2022-09-17T02:12:35.544Z,68.85
2022-09-17T02:15:07.511Z,69.07
2022-09-17T02:17:42.352Z,69.17
2022-09-17T02:20:09.850Z,69.61
2022-09-17T02:22:43.159Z,69.73
2022-09-17T02:25:24.830Z,69.38
2022-09-17T02:28:05.037Z,69.46
2022-09-17T02:30:32.478Z,69.92
2022-09-17T02:33:02.133Z,69.77
2022-09-17T02:35:32.015Z,69.87
2022-09-17T02:37:59.533Z,69.79
2022-09-17T02:40:31.562Z,69.87
2022-09-17T02:43:13.643Z,69.96
2022-09-17T02:46:12.127Z,69.74
2022-09-17T02:49:01.286Z,69.86
2022-09-17T02:51:33.683Z,69.99
2022-09-17T02:54:15.922Z,70.20
2022-09-17T02:56:51.911Z,70.12
2022-09-17T02:59:24.868Z,70.14
2022-09-17T03:02:00.204Z,70.33
2022-09-17T03:04:28.669Z,70.32
2022-09-17T03:06:55.977Z,70.35
2022-09-17T03:09:22.469Z,70.26
2022-09-17T03:11:49.072Z,70.45
2022-09-17T03:14:15.516Z,70.57
2022-09-17T03:16:41.998Z,70.56
2022-09-17T03:19:08.485Z,70.44
2022-09-17T03:21:34.953Z,70.65
2022-09-17T03:24:01.678Z,70.62
2022-09-17T03:26:28.134Z,70.85
2022-09-17T03:28:55.534Z,70.51
2022-09-17T03:31:22.008Z,70.51
2022-09-17T03:33:48.551Z,70.79
2022-09-17T03:36:15.002Z,70.33
2022-09-17T03:38:41.444Z,70.63
2022-09-17T03:41:08.019Z,70.54
2022-09-17T03:43:34.891Z,70.28
2022-09-17T03:46:01.762Z,70.06
2022-09-17T03:48:29.667Z,69.91
2022-09-17T03:50:56.805Z,70.16
2022-09-17T03:53:23.703Z,70.06
2022-09-17T03:55:50.338Z,69.80
2022-09-17T03:58:16.821Z,69.51
2022-09-17T04:03:55.219Z,70.04
2022-09-17T04:06:21.866Z,69.68
2022-09-17T04:08:48.377Z,69.85
2022-09-17T04:11:14.865Z,69.58
2022-09-17T04:13:41.354Z,69.67
2022-09-17T04:16:08.114Z,69.51
2022-09-17T04:18:34.763Z,69.65
2022-09-17T04:21:01.347Z,68.98
2022-09-17T04:23:27.954Z,69.03
2022-09-17T04:25:55.514Z,69.24
2022-09-17T04:28:23.568Z,69.25
2022-09-17T04:30:50.041Z,69.57
2022-09-17T04:33:16.485Z,69.54
2022-09-17T04:35:43.511Z,69.56
2022-09-17T04:38:10.156Z,69.97
2022-09-17T04:40:36.736Z,70.04
2022-09-17T04:43:04.090Z,70.09
2022-09-17T04:45:33.385Z,69.94
2022-09-17T04:48:00.157Z,69.98
2022-09-17T04:50:26.735Z,70.31
2022-09-17T04:52:53.206Z,70.36
2022-09-17T04:55:19.703Z,70.39
2022-09-17T04:57:51.781Z,70.27
2022-09-17T05:00:20.165Z,70.26
2022-09-17T05:02:51.988Z,70.19
2022-09-17T05:05:19.721Z,70.22
2022-09-17T05:07:46.821Z,70.09
2022-09-17T05:10:16.840Z,70.47
2022-09-17T05:12:48.655Z,70.03
2022-09-17T05:15:15.318Z,70.22
2022-09-17T05:17:42.096Z,70.15
2022-09-17T05:20:09.832Z,70.37
2022-09-17T05:22:40.074Z,69.95
2022-09-17T05:25:06.791Z,69.78
2022-09-17T05:27:33.318Z,70.02
2022-09-17T05:29:59.762Z,70.21
2022-09-17T05:32:26.287Z,70.18
2022-09-17T05:34:52.797Z,70.02
2022-09-17T05:37:19.232Z,70.12
2022-09-17T05:39:46.325Z,70.33
2022-09-17T05:42:12.886Z,70.33
2022-09-17T05:44:39.422Z,70.10
2022-09-17T05:47:05.917Z,69.86
2022-09-17T05:49:32.528Z,70.10
2022-09-17T05:51:58.973Z,70.13
2022-09-17T05:54:25.439Z,70.17
2022-09-17T05:56:55.165Z,69.90
2022-09-17T05:59:22.308Z,69.74
2022-09-17T06:01:50.800Z,69.89
2022-09-17T06:04:19.905Z,69.96
2022-09-17T06:06:46.411Z,69.48
2022-09-17T06:09:12.883Z,69.51
2022-09-17T06:11:39.333Z,69.51
2022-09-17T06:14:05.847Z,69.27
2022-09-17T06:16:32.380Z,68.80
2022-09-17T06:18:59.160Z,68.68
2022-09-17T06:21:25.643Z,68.97
2022-09-17T06:23:52.219Z,68.77
2022-09-17T06:26:18.781Z,68.35
2022-09-17T06:28:45.521Z,68.29
2022-09-17T06:31:13.241Z,68.39
2022-09-17T06:33:40.580Z,68.05
2022-09-17T06:36:13.643Z,68.19
2022-09-17T06:38:41.458Z,67.51
2022-09-17T06:41:08.488Z,67.55
2022-09-17T06:43:34.952Z,67.57
2022-09-17T06:46:05.889Z,66.93
2022-09-17T06:48:34.561Z,67.03
2022-09-17T06:51:06.781Z,67.12
2022-09-17T06:53:34.076Z,66.60
2022-09-17T06:56:05.998Z,66.77
2022-09-17T06:58:33.895Z,66.64
2022-09-17T07:01:01.854Z,65.78
2022-09-17T07:03:29.777Z,65.54
2022-09-17T07:05:57.372Z,65.99
2022-09-17T07:08:24.142Z,65.48
2022-09-17T07:10:50.587Z,65.52
2022-09-17T07:13:17.177Z,64.90
2022-09-17T07:15:43.712Z,64.92
2022-09-17T07:18:11.717Z,64.57
2022-09-17T07:20:39.187Z,64.90
2022-09-17T07:23:05.637Z,65.00
2022-09-17T07:25:32.168Z,64.62
2022-09-17T07:27:59.662Z,64.52
2022-09-17T07:30:26.207Z,64.03
2022-09-17T07:32:52.657Z,64.23
2022-09-17T07:35:19.316Z,64.17
2022-09-17T07:37:45.833Z,63.98
2022-09-17T07:40:12.329Z,63.74
2022-09-17T07:42:38.831Z,63.98
2022-09-17T07:45:06.627Z,63.53
2022-09-17T07:47:38.784Z,64.02
2022-09-17T07:50:06.641Z,63.70
2022-09-17T07:52:33.089Z,63.42
2022-09-17T07:54:59.544Z,62.54
2022-09-17T07:57:25.976Z,62.68
2022-09-17T07:59:52.602Z,62.39
2022-09-17T08:02:24.121Z,62.11
2022-09-17T08:04:51.168Z,61.44
2022-09-17T08:07:17.658Z,61.93
2022-09-17T08:09:44.218Z,62.28
2022-09-17T08:12:10.641Z,62.14
2022-09-17T08:14:37.381Z,62.24
2022-09-17T08:17:07.373Z,62.12
2022-09-17T08:19:34.065Z,62.45
2022-09-17T08:22:00.676Z,62.21
2022-09-17T08:24:30.131Z,62.08
2022-09-17T08:26:57.221Z,62.58
2022-09-17T08:29:23.886Z,62.41
2022-09-17T08:31:50.757Z,62.21
2022-09-17T08:34:17.652Z,61.37
2022-09-17T08:36:44.197Z,61.57
2022-09-17T08:39:12.409Z,61.28
2022-09-17T08:42:02.196Z,60.69
2022-09-17T08:44:47.738Z,59.43
2022-09-17T08:47:33.411Z,59.00
2022-09-17T08:50:03.596Z,59.43
2022-09-17T08:52:59.623Z,58.57
2022-09-17T08:55:50.173Z,57.77
2022-09-17T08:58:35.472Z,57.15
2022-09-17T09:01:31.308Z,56.23
2022-09-17T09:04:29.161Z,54.89
2022-09-17T09:07:02.713Z,55.11
2022-09-17T09:09:36.945Z,54.42
2022-09-17T09:12:14.866Z,54.25
2022-09-17T09:14:56.152Z,53.50
2022-09-17T09:17:26.003Z,52.16
2022-09-17T09:19:53.877Z,51.86
2022-09-17T09:22:42.069Z,51.39
2022-09-17T09:25:21.168Z,50.40
2022-09-17T09:28:12.348Z,50.72
2022-09-17T09:31:15.831Z,51.06
2022-09-17T09:33:47.898Z,50.78
2022-09-17T09:36:21.899Z,50.88
2022-09-17T09:39:01.602Z,49.99
2022-09-17T09:41:43.429Z,49.52
2022-09-17T09:44:12.891Z,48.85
2022-09-17T09:47:04.232Z,48.87
2022-09-17T09:50:00.962Z,48.57
2022-09-17T09:52:36.370Z,47.96
2022-09-17T09:55:12.353Z,48.28
2022-09-17T09:57:52.185Z,48.79
2022-09-17T10:00:39.910Z,48.72
2022-09-17T10:03:22.849Z,49.09
2022-09-17T10:06:12.411Z,49.54
2022-09-17T10:08:52.138Z,50.51
2022-09-17T10:11:24.432Z,51.81
2022-09-17T10:13:51.787Z,51.93
2022-09-17T10:16:27.688Z,53.34
2022-09-17T10:19:06.620Z,53.96
2022-09-17T10:21:39.492Z,54.48
2022-09-17T10:24:26.942Z,55.20
2022-09-17T10:27:02.290Z,55.87
2022-09-17T10:29:29.058Z,56.51
2022-09-17T10:31:57.946Z,57.17
2022-09-17T10:34:27.513Z,58.25
2022-09-17T10:36:58.517Z,58.51
2022-09-17T10:39:25.134Z,59.04
2022-09-17T10:42:03.973Z,59.35
2022-09-17T10:44:36.730Z,59.86
2022-09-17T10:47:13.473Z,60.72
2022-09-17T10:49:44.074Z,60.12
2022-09-17T10:52:12.948Z,60.22
2022-09-17T10:55:17.002Z,60.37
2022-09-17T10:58:04.793Z,60.13
2022-09-17T11:01:03.554Z,60.05
2022-09-17T11:03:48.789Z,59.66
2022-09-17T11:06:59.020Z,59.61
2022-09-17T11:09:41.584Z,59.24
2022-09-17T11:12:14.021Z,59.56
2022-09-17T11:15:14.827Z,59.41
2022-09-17T11:17:51.033Z,59.18
2022-09-17T11:20:32.757Z,59.19
2022-09-17T11:23:27.249Z,59.27
2022-09-17T11:26:00.685Z,59.06
2022-09-17T11:28:42.974Z,59.25
2022-09-17T11:31:24.832Z,59.39
2022-09-17T11:34:11.794Z,59.79
2022-09-17T11:36:53.364Z,59.32
2022-09-17T11:39:36.665Z,58.42
2022-09-17T11:42:10.844Z,58.14
2022-09-17T11:44:45.725Z,57.86
2022-09-17T11:47:24.035Z,57.69
2022-09-17T11:50:00.985Z,57.83
2022-09-17T11:52:33.767Z,57.52
2022-09-17T11:55:18.094Z,57.74
2022-09-17T11:57:45.626Z,57.39
2022-09-17T12:00:19.765Z,57.20
2022-09-17T12:03:13.716Z,57.06
2022-09-17T12:05:46.562Z,57.07
2022-09-17T12:08:25.162Z,56.80
2022-09-17T12:11:00.235Z,56.02
2022-09-17T12:13:34.460Z,55.84
2022-09-17T12:16:11.905Z,55.72
2022-09-17T12:18:48.601Z,56.36
2022-09-17T12:21:19.985Z,56.16
2022-09-17T12:24:13.003Z,56.11
2022-09-17T12:26:54.761Z,55.46
2022-09-17T12:29:42.876Z,55.37
2022-09-17T12:32:28.220Z,55.54
2022-09-17T12:35:17.757Z,55.54
2022-09-17T12:38:13.541Z,55.10
2022-09-17T12:40:55.286Z,55.22
2022-09-17T12:43:30.792Z,53.49
2022-09-17T12:46:26.262Z,52.64
2022-09-17T12:49:19.642Z,52.61
2022-09-17T12:52:02.018Z,52.17
2022-09-17T12:54:53.474Z,51.32
2022-09-17T12:57:35.890Z,51.58
2022-09-17T13:00:08.220Z,51.39
2022-09-17T13:02:48.021Z,48.69
2022-09-17T13:06:09.125Z,48.67
2022-09-17T13:09:00.923Z,48.25
2022-09-17T13:11:50.498Z,49.19
2022-09-17T13:14:36.082Z,48.49
2022-09-17T13:17:25.864Z,48.84
2022-09-17T13:20:04.684Z,48.88
2022-09-17T13:22:34.413Z,48.48
2022-09-17T13:25:07.859Z,47.82
2022-09-17T13:27:37.589Z,47.60
2022-09-17T13:30:08.733Z,47.93
2022-09-17T13:32:35.351Z,47.14
2022-09-17T13:35:13.896Z,46.22
2022-09-17T13:37:45.459Z,46.55
2022-09-17T13:40:33.147Z,45.00
2022-09-17T13:43:02.756Z,45.30
2022-09-17T13:45:30.110Z,45.45
2022-09-17T13:48:02.041Z,44.93
2022-09-17T13:50:38.723Z,44.89
2022-09-17T13:53:14.340Z,44.47
2022-09-17T13:55:52.122Z,44.79
2022-09-17T13:58:18.830Z,45.03
2022-09-17T14:01:04.617Z,45.07
2022-09-17T14:03:31.258Z,45.41
2022-09-17T14:06:22.088Z,45.98
2022-09-17T14:08:50.466Z,46.24
2022-09-17T14:11:23.387Z,46.02
2022-09-17T14:13:53.454Z,46.61
2022-09-17T14:16:35.616Z,46.66
2022-09-17T14:19:18.607Z,47.02
2022-09-17T14:21:57.328Z,47.18
2022-09-17T14:24:26.680Z,47.88
2022-09-17T14:27:09.014Z,47.73
2022-09-17T14:29:43.631Z,48.69
2022-09-17T14:32:17.212Z,49.77
2022-09-17T14:34:43.858Z,49.35
2022-09-17T14:37:17.485Z,49.24
2022-09-17T14:39:44.641Z,49.79
2022-09-17T14:42:24.632Z,50.84
2022-09-17T14:45:19.848Z,51.05
2022-09-17T14:47:46.404Z,51.57
2022-09-17T14:50:24.925Z,52.18
2022-09-17T14:52:54.785Z,52.21
2022-09-17T14:55:31.791Z,52.67
2022-09-17T14:58:04.711Z,53.52
2022-09-17T15:00:37.739Z,53.41
2022-09-17T15:03:04.707Z,54.20
2022-09-17T15:05:36.660Z,54.63
2022-09-17T15:08:19.031Z,55.55
2022-09-17T15:10:52.488Z,55.43
2022-09-17T15:13:25.315Z,55.22
2022-09-17T15:15:55.630Z,54.80
2022-09-17T15:18:33.874Z,54.66
2022-09-17T15:21:03.678Z,54.22
2022-09-17T15:23:33.740Z,54.28
2022-09-17T15:26:03.109Z,54.57
2022-09-17T15:28:41.572Z,54.61
2022-09-17T15:31:18.179Z,54.54
2022-09-17T15:33:46.047Z,54.69
2022-09-17T15:36:23.814Z,54.85
2022-09-17T15:38:51.133Z,54.83
2022-09-17T15:41:27.978Z,55.01
2022-09-17T15:44:03.693Z,54.81
2022-09-17T15:46:39.997Z,55.07
2022-09-17T15:49:28.356Z,55.60
2022-09-17T15:51:55.006Z,55.92
2022-09-17T15:54:32.668Z,56.02
2022-09-17T15:57:03.707Z,56.58
2022-09-17T15:59:33.333Z,56.63
2022-09-17T16:02:01.964Z,56.99
2022-09-17T16:04:32.845Z,56.74
2022-09-17T16:07:11.606Z,56.96
2022-09-17T16:09:39.543Z,56.62
2022-09-17T16:12:06.416Z,57.04
2022-09-17T16:14:33.107Z,57.15
2022-09-17T16:17:08.676Z,57.51
2022-09-17T16:19:35.273Z,57.70
2022-09-17T16:22:01.869Z,57.35
2022-09-17T16:24:28.294Z,57.33
2022-09-17T16:26:55.020Z,57.27
2022-09-17T16:29:22.230Z,57.23
2022-09-17T16:31:50.808Z,57.20
2022-09-17T16:34:17.686Z,56.78
2022-09-17T16:36:44.181Z,56.65
2022-09-17T16:39:10.661Z,55.94
2022-09-17T16:41:37.189Z,56.30
2022-09-17T16:44:03.937Z,56.04
2022-09-17T16:46:30.578Z,56.57
2022-09-17T16:48:57.369Z,56.86
2022-09-17T16:51:23.868Z,56.57
2022-09-17T16:53:50.376Z,56.96
2022-09-17T16:56:17.162Z,57.21
2022-09-17T16:58:43.663Z,57.59
2022-09-17T17:01:15.298Z,60.01
2022-09-17T17:03:42.594Z,62.20
2022-09-17T17:06:16.779Z,63.19
2022-09-17T17:08:43.284Z,63.55
2022-09-17T17:11:09.819Z,64.12
2022-09-17T17:13:36.585Z,64.53
2022-09-17T17:16:11.175Z,64.63
2022-09-17T17:18:37.891Z,64.50
2022-09-17T17:21:09.350Z,63.91
2022-09-17T17:23:35.927Z,63.90
2022-09-17T17:26:03.682Z,64.45
2022-09-17T17:28:37.934Z,64.64
2022-09-17T17:31:05.660Z,64.70
2022-09-17T17:33:32.400Z,65.25
2022-09-17T17:36:07.826Z,65.34
2022-09-17T17:38:35.669Z,65.35
2022-09-17T17:41:14.187Z,65.81
2022-09-17T17:43:41.703Z,66.04
2022-09-17T17:46:10.272Z,66.52
2022-09-17T17:48:37.540Z,66.71
2022-09-17T17:51:06.432Z,66.80
2022-09-17T17:53:33.625Z,66.98
2022-09-17T17:56:02.023Z,67.62
2022-09-17T17:58:29.311Z,67.33
2022-09-17T18:00:56.041Z,67.48
2022-09-17T18:03:25.140Z,67.63
2022-09-17T18:05:53.723Z,68.14
2022-09-17T18:08:20.288Z,68.09
2022-09-17T18:10:55.299Z,68.24
2022-09-17T18:13:23.430Z,68.94
2022-09-17T18:15:55.425Z,68.75
2022-09-17T18:18:23.665Z,69.12
2022-09-17T18:20:53.206Z,69.35
2022-09-17T18:23:20.782Z,69.48
2022-09-17T18:25:55.144Z,69.74
2022-09-17T18:28:22.509Z,70.00
2022-09-17T18:30:49.696Z,70.18
2022-09-17T18:33:25.129Z,70.03
2022-09-17T18:35:57.182Z,70.09
2022-09-17T18:38:24.352Z,70.16
2022-09-17T18:40:51.761Z,70.32
2022-09-17T18:43:18.739Z,70.43
2022-09-17T18:45:55.802Z,70.24
2022-09-17T18:48:23.519Z,70.40
2022-09-17T18:51:02.058Z,70.60
2022-09-17T18:53:30.907Z,70.34
2022-09-17T18:56:06.660Z,70.74
2022-09-17T18:58:34.091Z,70.68
2022-09-17T19:01:00.673Z,70.91
2022-09-17T19:03:31.757Z,70.77
2022-09-17T19:06:03.279Z,70.81
2022-09-17T19:08:29.922Z,70.48
2022-09-17T19:10:57.961Z,70.63
2022-09-17T19:13:26.653Z,70.81
2022-09-17T19:15:58.225Z,70.94
2022-09-17T19:18:24.960Z,70.71
2022-09-17T19:20:51.533Z,71.08
2022-09-17T19:23:18.053Z,71.12
2022-09-17T19:25:44.496Z,71.31
2022-09-17T19:28:10.965Z,71.21
2022-09-17T19:30:37.462Z,71.30
2022-09-17T19:33:04.650Z,71.07
2022-09-17T19:35:31.492Z,71.07
2022-09-17T19:37:58.727Z,71.47
2022-09-17T19:40:25.812Z,71.21
2022-09-17T19:42:54.049Z,71.32
2022-09-17T19:45:22.351Z,71.21
2022-09-17T19:47:48.981Z,71.41
2022-09-17T19:50:16.121Z,71.35
2022-09-17T19:52:42.609Z,71.42
2022-09-17T19:55:12.778Z,71.67
2022-09-17T19:57:41.419Z,71.66
2022-09-17T20:00:11.678Z,71.80
2022-09-17T20:02:38.707Z,71.87
2022-09-17T20:05:05.550Z,71.52
2022-09-17T20:07:32.173Z,71.81
2022-09-17T20:09:59.477Z,72.02
2022-09-17T20:12:26.025Z,71.75
2022-09-17T20:14:52.565Z,71.88
2022-09-17T20:17:19.129Z,71.54
2022-09-17T20:19:45.584Z,71.85
2022-09-17T20:22:12.069Z,71.64
2022-09-17T20:24:38.535Z,71.75
2022-09-17T20:27:05.184Z,72.09
2022-09-17T20:29:31.625Z,71.91
2022-09-17T20:31:58.107Z,71.67
2022-09-17T20:34:24.594Z,72.06
2022-09-17T20:37:01.975Z,71.89
2022-09-17T20:39:37.615Z,71.83
2022-09-17T20:42:04.200Z,72.23
2022-09-17T20:44:30.917Z,72.38
2022-09-17T20:46:57.826Z,72.36
2022-09-17T20:49:24.324Z,72.41
2022-09-17T20:51:51.715Z,72.61
2022-09-17T20:54:18.221Z,72.48
2022-09-17T20:56:44.922Z,72.58
2022-09-17T20:59:15.347Z,72.43
2022-09-17T21:01:45.159Z,72.31
2022-09-17T21:04:14.601Z,72.43
2022-09-17T21:06:42.649Z,72.46
2022-09-17T21:09:12.136Z,72.38
2022-09-17T21:11:38.800Z,72.42
2022-09-17T21:14:05.738Z,72.54
2022-09-17T21:16:32.429Z,71.94
2022-09-17T21:19:04.261Z,72.10
2022-09-17T21:21:34.293Z,72.65
2022-09-17T21:24:06.085Z,72.47
2022-09-17T21:26:35.335Z,72.44
2022-09-17T21:29:02.235Z,72.52
2022-09-17T21:31:32.933Z,72.66
2022-09-17T21:34:02.038Z,72.49
2022-09-17T21:36:30.975Z,72.18
2022-09-17T21:39:00.089Z,72.40
2022-09-17T21:41:26.868Z,72.42
2022-09-17T21:43:53.735Z,72.15
2022-09-17T21:46:27.612Z,72.16
2022-09-17T21:48:55.892Z,72.11
2022-09-17T21:51:26.478Z,72.19
2022-09-17T21:53:55.215Z,72.49
2022-09-17T21:56:22.347Z,72.34
2022-09-17T21:58:54.620Z,72.03
2022-09-17T22:01:24.659Z,72.43
2022-09-17T22:03:51.224Z,72.30
2022-09-17T22:06:21.377Z,72.32
2022-09-17T22:08:49.318Z,72.12
2022-09-17T22:11:19.131Z,72.02
2022-09-17T22:13:57.336Z,72.16
2022-09-17T22:16:26.798Z,72.03
2022-09-17T22:18:53.545Z,71.68
2022-09-17T22:21:22.665Z,71.67
2022-09-17T22:23:50.748Z,71.62
2022-09-17T22:26:18.727Z,71.40
2022-09-17T22:28:45.271Z,71.37
2022-09-17T22:31:12.886Z,71.55
2022-09-17T22:33:45.112Z,71.44
2022-09-17T22:36:14.405Z,71.28
2022-09-17T22:38:42.038Z,71.27
2022-09-17T22:41:13.769Z,71.27
2022-09-17T22:43:40.437Z,71.03
2022-09-17T22:46:19.830Z,71.07
2022-09-17T22:48:47.195Z,70.96
2022-09-17T22:51:14.859Z,71.19
2022-09-17T22:53:42.774Z,71.05
2022-09-17T22:56:13.173Z,71.30
2022-09-17T22:58:40.432Z,71.06
2022-09-17T23:01:16.286Z,70.94
2022-09-17T23:03:43.851Z,71.11
2022-09-17T23:06:12.736Z,71.00
2022-09-17T23:08:40.105Z,71.43
2022-09-17T23:11:09.421Z,71.30
2022-09-17T23:13:36.234Z,71.35
2022-09-17T23:16:04.506Z,71.90
2022-09-17T23:18:31.856Z,71.64
2022-09-17T23:21:00.959Z,71.63
2022-09-17T23:23:27.840Z,72.15
2022-09-17T23:25:55.294Z,72.05
2022-09-17T23:28:22.700Z,72.39
2022-09-17T23:30:49.657Z,72.34
2022-09-17T23:33:16.221Z,72.34
2022-09-17T23:35:42.837Z,72.41
2022-09-17T23:38:09.528Z,72.41
2022-09-17T23:40:36.123Z,72.78
2022-09-17T23:43:02.711Z,72.68
2022-09-17T23:45:31.827Z,72.56
2022-09-17T23:47:58.406Z,72.67
2022-09-17T23:50:25.971Z,72.55
2022-09-17T23:52:52.741Z,72.63
2022-09-17T23:55:19.414Z,72.49
2022-09-17T23:57:46.035Z,72.50
